Waynesboro, GA (30830)

12:10 PM EDT on July 23, 2014 (GMT -0400)
Heatwole Family Allen Rd.,North Burke County (KGAHEPHZ4) Elev 364 ft | 33.19 °N, 82.02 °W | Change Station

Current weather conditions updated 36 seconds ago

Mostly Cloudy
Mostly Cloudy
87.0 °F
Feels Like 98 °F
N
0.0
Wind Variable Wind from North
Gusts 0.0 mph

Today is forecast to be nearly the same temperature as yesterday. Scattered thunderstorms.

Today
High -- | Low -- °F
--% Chance of Precip.
Yesterday
High -- | Low -- °F
Precip. -- in
6:35 AM 8:33 PM
Waning Crescent, 10% visible
Pressure 30.07 in
Visibility 10.0 miles
Clouds Scattered Clouds 3800 ft
Scattered Clouds 4900 ft
Mostly Cloudy 6000 ft
Heat Index 98 °F
Dew Point 76 °F
Humidity 70%
Rainfall 0.00 in
Snow Depth Not available.
UV 6 out of 12
Pollen 3.70 out of 12
Ozone Good
PM2.5 Good
Flu Activity Not available.
SPECI KAGS 231600Z 31006KT 10SM SCT038 SCT049 BKN060 31/22 A3007 RMK AO2 T03110217

More Conditions Fewer Conditions

Pressure 30.07 in
Visibility 10.0 miles
Clouds Scattered Clouds 3800 ft
Scattered Clouds 4900 ft
Mostly Cloudy 6000 ft
Heat Index 98 °F
Dew Point 76 °F
Humidity 70%
Rainfall 0.00 in
Snow Depth Not available.
UV 6 out of 12
Pollen 3.70 out of 12
Ozone Good
PM2.5 Good
Flu Activity Not available.
SPECI KAGS 231600Z 31006KT 10SM SCT038 SCT049 BKN060 31/22 A3007 RMK AO2 T03110217

More Conditions Fewer Conditions

10-Day Weather Forecast

Almanac

Astronomy

Jul. 23, 2014 Rise Set
Actual Time 6:35 AM EDT 8:33 PM EDT
Civil Twilight 6:07 AM EDT 9:01 PM EDT
Nautical Twilight 5:34 AM EDT 9:34 PM EDT
Astronomical Twilight 4:58 AM EDT 10:10 PM EDT
Moon 3:52 AM EDT 6:02 PM EDT
Length of Visible Light 14h 53m
Length of Day
13h 58m
Tomorrow will be 1m 18s shorter.
Waning Crescent, 10% of the Moon is Illuminated
Today
Waning Crescent
Jul 26
New
Aug 3
First Quarter
Aug 10
Full
Aug 17
Last Quarter

Today's Extremes

State Highs State Lows

Community

WunderPhotos

Upload Photos

1,736,660 photos uploaded!

Nearby

Air Quality

  Air Quality AQ Index Pollutant
Yesterday Good
OZONE
Yesterday Good
PM2.5
Current Good
PM2.5
Current Good
OZONE
Wednesday Good
OZONE

Snow Depth

Station Depth Elevation
No new snow has been reported.

Earthquake Activity

City Distance Mag. Time & Date
No recent earthquake activity has been reported nearby.
Minimum magnitude displayed is 2.5.

Coastal Water Temperatures

Place Temperature
No Stations Reporting

Nearby Weather Stations

Station Location Temp. Heat Index Dew Point Humidity Wind Precip. Elev Updated Type
Heatwole Family Allen Rd.,North Burke Co, Hephzibah, GA 87.0 °F 98 °F 76 °F 70% North  at  0.0 mph 0.00 in / hr 364 ft 12:09 PM EDT Normal
Tobacco Road, Gracewood, GA 87.4 °F 95 °F 73 °F 63% WSW  at  3.0 mph 0.00 in / hr 295 ft 12:10 PM EDT Rapid Fire
RAWS LOUISVILLE GA, Louisville, GA 83 °F 89 °F 73 °F 73% West  at  6 mph 0.00 in / hr 311 ft 11:03 AM EDT MADIS

Show More Stations Show Fewer Stations